Time;durP1;ratioP1;P1;durP2;ratioP2;P2;SDS_P1;SDS_P2;PMS_P1;PMS_P2;Temp;Humidity;BMP_temperature;BMP_pressure;BME280_temperature;BME280_humidity;BME280_pressure;Samples;Min_cycle;Max_cycle;Signal;HPM_P1;HPM_P2
2022/08/07 00:01:15;;;;;;;0.50;0.50;;;;;16.10;96604.00;;;;5113426;28;20225;-49
2022/08/07 00:03:42;;;;;;;0.50;0.50;;;;;16.10;96609.00;;;;5113387;28;20257;-50
2022/08/07 00:06:09;;;;;;;0.43;0.43;;;;;16.00;96599.00;;;;5113319;28;20198;-51
2022/08/07 00:08:36;;;;;;;0.40;0.40;;;;;16.00;96604.00;;;;5095366;28;20288;-50
2022/08/07 00:11:03;;;;;;;0.50;0.50;;;;;15.80;96601.00;;;;5113400;28;20198;-50
2022/08/07 00:13:36;;;;;;;0.50;0.50;;;;;15.90;96611.00;;;;5113404;28;20186;-49
2022/08/07 00:16:03;;;;;;;0.50;0.50;;;;;15.90;96612.00;;;;5113192;28;20218;-50
2022/08/07 00:18:31;;;;;;;1.30;0.60;;;;;15.80;96602.00;;;;5113241;28;20198;-50
2022/08/07 00:21:00;;;;;;;0.50;0.50;;;;;15.80;96601.00;;;;5113017;28;20607;-50
2022/08/07 00:23:26;;;;;;;0.80;0.80;;;;;15.70;96595.00;;;;5113178;28;20206;-50
2022/08/07 00:25:53;;;;;;;0.50;0.50;;;;;15.80;96604.00;;;;5114833;28;20274;-50
2022/08/07 00:28:21;;;;;;;0.70;0.70;;;;;15.80;96599.00;;;;5098832;28;20209;-50
2022/08/07 00:30:48;;;;;;;0.40;0.40;;;;;15.90;96594.00;;;;5116568;28;20204;-50
2022/08/07 00:33:15;;;;;;;0.73;0.73;;;;;15.90;96604.00;;;;5116671;28;20194;-49
2022/08/07 00:35:43;;;;;;;0.50;0.50;;;;;15.80;96607.00;;;;5116658;28;20232;-49
2022/08/07 00:38:10;;;;;;;0.40;0.40;;;;;15.70;96606.00;;;;5116604;28;20221;-50
2022/08/07 00:40:38;;;;;;;0.63;0.63;;;;;15.60;96610.00;;;;5116425;28;20287;-49
2022/08/07 00:43:05;;;;;;;0.50;0.50;;;;;15.50;96607.00;;;;5098346;28;20229;-50
2022/08/07 00:45:32;;;;;;;0.50;0.50;;;;;15.70;96600.00;;;;5116521;28;20187;-50
2022/08/07 00:47:58;;;;;;;0.50;0.50;;;;;15.60;96600.00;;;;5116347;28;20309;-50
2022/08/07 00:50:28;;;;;;;0.50;0.50;;;;;15.50;96603.00;;;;5116476;28;20319;-50
2022/08/07 00:52:55;;;;;;;0.40;0.40;;;;;15.40;96601.00;;;;5116403;28;20277;-50
2022/08/07 00:55:22;;;;;;;0.53;0.53;;;;;15.40;96599.00;;;;5116326;28;20190;-50
2022/08/07 00:57:50;;;;;;;0.60;0.60;;;;;15.30;96595.00;;;;5116319;28;20201;-50
2022/08/07 01:00:19;;;;;;;0.50;0.50;;;;;15.40;96594.00;;;;5116117;28;20225;-49
2022/08/07 01:02:46;;;;;;;0.40;0.40;;;;;15.40;96588.00;;;;5116312;28;20202;-50
2022/08/07 01:05:15;;;;;;;0.40;0.40;;;;;15.30;96595.00;;;;5116124;28;20292;-50
2022/08/07 01:07:42;;;;;;;0.50;0.50;;;;;15.30;96587.00;;;;5116103;28;20186;-50
2022/08/07 01:10:10;;;;;;;1.47;0.60;;;;;15.30;96577.00;;;;5115943;28;20645;-50
2022/08/07 01:12:38;;;;;;;0.50;0.50;;;;;15.30;96581.00;;;;5116148;28;20633;-50
2022/08/07 01:15:05;;;;;;;0.40;0.40;;;;;15.10;96583.00;;;;5115944;28;20210;-50
2022/08/07 01:17:33;;;;;;;0.50;0.50;;;;;15.10;96585.00;;;;5116042;28;20193;-50
2022/08/07 01:20:04;;;;;;;0.40;0.40;;;;;15.00;96580.00;;;;5115965;28;20232;-49
2022/08/07 01:22:32;;;;;;;0.50;0.50;;;;;14.90;96576.00;;;;5115888;28;20210;-50
2022/08/07 01:24:59;;;;;;;0.40;0.40;;;;;15.00;96584.00;;;;5115828;28;20198;-52
2022/08/07 01:27:26;;;;;;;0.40;0.40;;;;;14.90;96576.00;;;;5115969;28;20594;-50
2022/08/07 01:29:54;;;;;;;0.80;0.80;;;;;14.80;96579.00;;;;5115788;28;20218;-50
2022/08/07 01:32:21;;;;;;;0.50;0.50;;;;;14.80;96566.00;;;;5097708;28;20526;-50
2022/08/07 01:34:48;;;;;;;0.60;0.60;;;;;14.80;96579.00;;;;5115807;28;20194;-50
2022/08/07 01:37:16;;;;;;;0.50;0.50;;;;;14.80;96578.00;;;;5115681;28;20284;-50
2022/08/07 01:39:47;;;;;;;3.30;0.60;;;;;14.80;96585.00;;;;5115743;28;20664;-50
2022/08/07 01:42:15;;;;;;;0.47;0.47;;;;;14.80;96582.00;;;;5116047;28;20190;-50
2022/08/07 01:44:42;;;;;;;0.40;0.40;;;;;14.90;96577.00;;;;5115638;28;20230;-50
2022/08/07 01:47:09;;;;;;;0.60;0.60;;;;;14.70;96578.00;;;;5115563;28;20194;-50
2022/08/07 01:49:36;;;;;;;0.70;0.70;;;;;14.40;96578.00;;;;5115390;28;20221;-50
2022/08/07 01:52:05;;;;;;;0.70;0.70;;;;;14.40;96576.00;;;;5115439;28;20185;-50
2022/08/07 01:54:39;;;;;;;0.50;0.50;;;;;14.40;96569.00;;;;5115457;28;20201;-50
2022/08/07 01:57:14;;;;;;;0.60;0.60;;;;;14.40;96569.00;;;;5115415;28;20524;-50
2022/08/07 01:59:45;;;;;;;0.90;0.90;;;;;14.40;96566.00;;;;5097443;28;20221;-50
2022/08/07 02:02:18;;;;;;;0.43;0.43;;;;;14.40;96570.00;;;;5115352;28;20193;-49
2022/08/07 02:04:52;;;;;;;3.60;0.90;;;;;14.50;96563.00;;;;5097246;28;20202;-51
2022/08/07 02:07:22;;;;;;;0.60;0.60;;;;;14.50;96560.00;;;;5115245;28;20329;-49
2022/08/07 02:09:51;;;;;;;0.40;0.40;;;;;14.40;96560.00;;;;5115172;28;20300;-50
2022/08/07 02:12:21;;;;;;;0.67;0.67;;;;;14.30;96553.00;;;;5097313;28;20687;-49
2022/08/07 02:14:51;;;;;;;0.40;0.40;;;;;14.30;96552.00;;;;5115169;28;20497;-49
2022/08/07 02:17:19;;;;;;;0.53;0.53;;;;;14.30;96552.00;;;;5114929;28;20305;-50
2022/08/07 02:19:50;;;;;;;0.40;0.40;;;;;14.30;96549.00;;;;5114896;28;20298;-50
2022/08/07 02:22:19;;;;;;;0.50;0.50;;;;;14.20;96552.00;;;;5096840;28;20228;-50
2022/08/07 02:24:48;;;;;;;0.50;0.50;;;;;14.20;96550.00;;;;5096815;28;20546;-50
2022/08/07 02:27:19;;;;;;;0.90;0.90;;;;;14.20;96558.00;;;;5114814;28;20198;-55
2022/08/07 02:29:48;;;;;;;0.60;0.60;;;;;14.10;96548.00;;;;5114780;28;20225;-50
2022/08/07 02:32:17;;;;;;;0.57;0.57;;;;;14.10;96542.00;;;;5114623;28;20290;-50
2022/08/07 02:34:45;;;;;;;0.50;0.50;;;;;14.10;96547.00;;;;5114437;28;20245;-50
2022/08/07 02:37:13;;;;;;;0.60;0.60;;;;;14.10;96538.00;;;;5114639;28;20201;-50
2022/08/07 02:39:45;;;;;;;0.50;0.50;;;;;14.10;96541.00;;;;5114481;28;20222;-50
2022/08/07 02:42:12;;;;;;;0.50;0.50;;;;;14.00;96535.00;;;;5114544;28;20186;-50
2022/08/07 02:44:42;;;;;;;0.50;0.50;;;;;14.00;96533.00;;;;5114526;28;20230;-50
2022/08/07 02:47:10;;;;;;;0.40;0.40;;;;;13.90;96531.00;;;;5114443;28;20194;-50
2022/08/07 02:49:37;;;;;;;0.80;0.80;;;;;13.90;96537.00;;;;5113691;28;20190;-50
2022/08/07 02:52:08;;;;;;;0.53;0.53;;;;;13.90;96532.00;;;;5114247;28;20314;-50
2022/08/07 02:54:39;;;;;;;0.50;0.50;;;;;13.90;96530.00;;;;5114334;28;20212;-50
2022/08/07 02:57:07;;;;;;;0.60;0.60;;;;;13.80;96525.00;;;;5114252;28;20720;-50
2022/08/07 02:59:36;;;;;;;0.50;0.50;;;;;13.80;96532.00;;;;5114215;28;20221;-50
2022/08/07 03:02:03;;;;;;;0.53;0.53;;;;;13.70;96530.00;;;;5114213;28;20300;-49
2022/08/07 03:04:31;;;;;;;0.50;0.50;;;;;13.70;96529.00;;;;5096238;28;20197;-50
2022/08/07 03:06:59;;;;;;;0.60;0.60;;;;;13.70;96527.00;;;;5114189;28;20197;-49
2022/08/07 03:09:26;;;;;;;0.80;0.80;;;;;13.60;96530.00;;;;5114061;28;20606;-49
2022/08/07 03:11:53;;;;;;;0.50;0.50;;;;;13.70;96534.00;;;;5114035;28;20629;-49
2022/08/07 03:14:21;;;;;;;0.50;0.50;;;;;13.60;96528.00;;;;5114134;28;20516;-50
2022/08/07 03:16:48;;;;;;;0.43;0.43;;;;;13.70;96533.00;;;;5113983;28;20331;-50
2022/08/07 03:19:16;;;;;;;0.57;0.57;;;;;13.70;96533.00;;;;5113851;28;20634;-50
2022/08/07 03:21:42;;;;;;;0.50;0.50;;;;;13.50;96528.00;;;;5113987;28;20194;-50
2022/08/07 03:24:09;;;;;;;0.50;0.50;;;;;13.60;96528.00;;;;5113815;28;20253;-50
2022/08/07 03:26:38;;;;;;;0.40;0.40;;;;;13.50;96531.00;;;;5114037;28;20175;-55
2022/08/07 03:29:07;;;;;;;1.03;1.03;;;;;13.60;96529.00;;;;5113929;28;20202;-49
2022/08/07 03:31:34;;;;;;;0.60;0.60;;;;;13.60;96534.00;;;;5113905;28;20198;-52
2022/08/07 03:34:06;;;;;;;0.50;0.50;;;;;13.50;96525.00;;;;5113821;28;20275;-55
2022/08/07 03:36:34;;;;;;;0.40;0.40;;;;;13.50;96533.00;;;;5113737;28;20225;-50
2022/08/07 03:39:06;;;;;;;0.77;0.77;;;;;13.30;96540.00;;;;5113726;28;20273;-50
2022/08/07 03:41:34;;;;;;;0.40;0.40;;;;;13.30;96531.00;;;;5113740;28;20236;-50
2022/08/07 03:44:02;;;;;;;0.70;0.70;;;;;13.20;96535.00;;;;5096120;28;20235;-49
2022/08/07 03:46:29;;;;;;;0.50;0.50;;;;;13.30;96534.00;;;;5095654;28;20376;-48
2022/08/07 03:48:57;;;;;;;0.40;0.40;;;;;13.30;96533.00;;;;5113686;28;20197;-49
2022/08/07 03:51:25;;;;;;;0.50;0.50;;;;;13.30;96534.00;;;;5113658;28;20194;-49
2022/08/07 03:53:53;;;;;;;0.50;0.50;;;;;13.20;96524.00;;;;5113749;28;20650;-49
2022/08/07 03:56:23;;;;;;;0.47;0.47;;;;;13.40;96524.00;;;;5113657;28;20247;-49
2022/08/07 03:58:52;;;;;;;0.70;0.70;;;;;13.30;96530.00;;;;5113517;28;20217;-49
2022/08/07 04:01:20;;;;;;;0.57;0.57;;;;;13.30;96529.00;;;;5115716;28;20221;-50
2022/08/07 04:03:48;;;;;;;0.60;0.60;;;;;13.10;96529.00;;;;5117021;28;20297;-50
2022/08/07 04:06:15;;;;;;;6.30;0.90;;;;;13.20;96537.00;;;;5117117;28;20633;-49
2022/08/07 04:08:42;;;;;;;0.47;0.47;;;;;13.20;96533.00;;;;5116966;28;20621;-48
2022/08/07 04:11:10;;;;;;;0.50;0.50;;;;;13.20;96540.00;;;;5117062;28;20194;-49
2022/08/07 04:13:40;;;;;;;0.50;0.50;;;;;13.10;96544.00;;;;5116920;28;20223;-49
2022/08/07 04:16:09;;;;;;;0.50;0.50;;;;;13.10;96546.00;;;;5116764;28;20273;-50
2022/08/07 04:18:36;;;;;;;0.70;0.70;;;;;13.10;96546.00;;;;5116889;28;20200;-49
2022/08/07 04:21:04;;;;;;;1.90;0.90;;;;;13.10;96548.00;;;;5098895;28;20240;-49
2022/08/07 04:23:32;;;;;;;0.50;0.50;;;;;13.20;96557.00;;;;5116739;28;20258;-49
2022/08/07 04:25:59;;;;;;;0.40;0.40;;;;;13.20;96559.00;;;;5116743;28;20244;-49
2022/08/07 04:28:26;;;;;;;0.53;0.53;;;;;13.20;96554.00;;;;5116857;28;20276;-49
2022/08/07 04:30:53;;;;;;;0.63;0.63;;;;;13.20;96557.00;;;;5116542;28;20202;-49
2022/08/07 04:33:21;;;;;;;0.70;0.70;;;;;13.30;96554.00;;;;5116713;28;20201;-49
2022/08/07 04:35:48;;;;;;;0.50;0.50;;;;;13.20;96551.00;;;;5098595;28;20230;-49
2022/08/07 04:42:13;;;;;;;0.40;0.40;;;;;13.20;96550.00;;;;4956379;28;20653;-49
2022/08/07 04:44:41;;;;;;;0.90;0.90;;;;;13.20;96552.00;;;;5015128;28;20751;-53
2022/08/07 04:47:11;;;;;;;0.90;0.90;;;;;13.10;96552.00;;;;5116456;28;20626;-48
2022/08/07 04:49:44;;;;;;;0.50;0.50;;;;;13.10;96556.00;;;;5116386;28;20194;-48
2022/08/07 04:52:17;;;;;;;0.60;0.60;;;;;13.10;96565.00;;;;5116428;28;20795;-49
2022/08/07 04:54:51;;;;;;;0.67;0.67;;;;;13.00;96554.00;;;;5116447;28;20229;-48
2022/08/07 04:57:28;;;;;;;0.50;0.50;;;;;13.00;96549.00;;;;5116379;28;20210;-48
2022/08/07 05:00:03;;;;;;;0.40;0.40;;;;;13.10;96556.00;;;;5098301;28;20234;-50
2022/08/07 05:02:34;;;;;;;0.70;0.70;;;;;13.30;96553.00;;;;5116184;28;20213;-48
2022/08/07 05:05:08;;;;;;;0.50;0.50;;;;;13.40;96549.00;;;;5098035;28;20233;-49
2022/08/07 05:07:43;;;;;;;0.50;0.50;;;;;13.50;96553.00;;;;5116049;28;20198;-49
2022/08/07 05:10:15;;;;;;;0.60;0.60;;;;;13.50;96551.00;;;;5116008;28;20220;-49
2022/08/07 05:12:47;;;;;;;0.60;0.60;;;;;13.50;96555.00;;;;5115450;28;20194;-49
2022/08/07 05:15:21;;;;;;;0.50;0.50;;;;;13.60;96557.00;;;;5116158;28;20194;-48
2022/08/07 05:17:56;;;;;;;0.50;0.50;;;;;13.70;96552.00;;;;5115996;28;20192;-53
2022/08/07 05:20:26;;;;;;;0.50;0.50;;;;;13.80;96550.00;;;;5115871;28;20233;-50
2022/08/07 05:22:57;;;;;;;0.50;0.50;;;;;13.90;96563.00;;;;5115739;28;20587;-50
2022/08/07 05:25:26;;;;;;;0.70;0.70;;;;;14.00;96562.00;;;;5115938;28;20190;-49
2022/08/07 05:27:54;;;;;;;2.07;0.80;;;;;14.00;96560.00;;;;5115731;28;20226;-52
2022/08/07 05:30:23;;;;;;;0.50;0.50;;;;;14.10;96561.00;;;;5115665;28;20725;-47
2022/08/07 05:32:53;;;;;;;0.50;0.50;;;;;14.20;96573.00;;;;5115792;28;20221;-50
2022/08/07 05:35:22;;;;;;;0.60;0.60;;;;;14.30;96571.00;;;;5115832;28;20196;-48
2022/08/07 05:37:49;;;;;;;0.70;0.70;;;;;14.40;96572.00;;;;5115587;28;20221;-48
2022/08/07 05:40:17;;;;;;;0.57;0.57;;;;;14.50;96571.00;;;;5115523;28;20243;-48
2022/08/07 05:42:44;;;;;;;0.73;0.73;;;;;14.50;96572.00;;;;5115808;28;20521;-49
2022/08/07 05:45:11;;;;;;;0.40;0.40;;;;;14.50;96577.00;;;;5097436;28;20252;-50
2022/08/07 05:47:40;;;;;;;0.50;0.50;;;;;14.60;96588.00;;;;5115415;28;20629;-49
2022/08/07 05:50:08;;;;;;;0.60;0.60;;;;;14.70;96587.00;;;;5115282;28;20229;-49
2022/08/07 05:52:35;;;;;;;0.40;0.40;;;;;14.70;96589.00;;;;5115372;28;20202;-48
2022/08/07 05:55:03;;;;;;;0.40;0.40;;;;;14.80;96588.00;;;;5115429;28;20214;-48
2022/08/07 05:57:30;;;;;;;2.80;1.20;;;;;14.70;96587.00;;;;5115406;28;20204;-49
2022/08/07 05:59:59;;;;;;;1.00;1.00;;;;;14.80;96593.00;;;;5097208;28;20563;-50
2022/08/07 06:02:30;;;;;;;0.73;0.73;;;;;15.00;96588.00;;;;5115313;28;20189;-50
2022/08/07 06:05:02;;;;;;;0.67;0.67;;;;;15.10;96594.00;;;;5115238;28;20214;-49
2022/08/07 06:07:30;;;;;;;0.60;0.60;;;;;15.10;96592.00;;;;5115699;28;20641;-48
2022/08/07 06:09:57;;;;;;;0.50;0.50;;;;;15.20;96586.00;;;;5097666;28;20309;-50
2022/08/07 06:12:27;;;;;;;0.50;0.50;;;;;15.30;96591.00;;;;5115113;28;20720;-56
2022/08/07 06:14:54;;;;;;;0.50;0.50;;;;;15.30;96594.00;;;;5097142;28;20221;-50
2022/08/07 06:17:22;;;;;;;0.50;0.50;;;;;15.40;96592.00;;;;5114924;28;20274;-52
2022/08/07 06:19:50;;;;;;;0.50;0.50;;;;;15.60;96596.00;;;;5096856;28;20287;-50
2022/08/07 06:22:21;;;;;;;1.90;1.00;;;;;15.70;96584.00;;;;5114572;28;20195;-50
2022/08/07 06:24:47;;;;;;;0.40;0.40;;;;;15.90;96591.00;;;;5114380;28;20186;-49
2022/08/07 06:27:21;;;;;;;0.90;0.90;;;;;15.90;96584.00;;;;5114928;28;20311;-49
2022/08/07 06:29:51;;;;;;;0.60;0.60;;;;;15.90;96594.00;;;;5114739;28;20225;-51
2022/08/07 06:32:17;;;;;;;1.07;1.07;;;;;16.30;96588.00;;;;5114784;28;20208;-51
2022/08/07 06:34:44;;;;;;;0.50;0.50;;;;;16.30;96592.00;;;;5096767;28;20230;-50
2022/08/07 06:37:12;;;;;;;0.50;0.50;;;;;16.20;96587.00;;;;5114666;28;20702;-51
2022/08/07 06:39:39;;;;;;;0.50;0.50;;;;;16.20;96593.00;;;;5114353;28;20222;-48
2022/08/07 06:42:09;;;;;;;0.40;0.40;;;;;16.20;96590.00;;;;5096518;28;20297;-51
2022/08/07 06:44:45;;;;;;;0.53;0.53;;;;;16.30;96592.00;;;;5114683;28;20174;-50
2022/08/07 06:47:12;;;;;;;1.07;1.07;;;;;16.40;96590.00;;;;5114423;28;20201;-49
2022/08/07 06:49:39;;;;;;;1.60;1.33;;;;;16.60;96583.00;;;;5114384;28;20198;-50
2022/08/07 06:52:09;;;;;;;1.03;1.03;;;;;16.60;96596.00;;;;5114418;28;20194;-49
2022/08/07 06:54:37;;;;;;;0.70;0.70;;;;;16.80;96586.00;;;;5114343;28;20194;-49
2022/08/07 06:57:07;;;;;;;0.70;0.70;;;;;17.00;96600.00;;;;5114241;28;20251;-49
2022/08/07 06:59:37;;;;;;;0.60;0.60;;;;;17.20;96598.00;;;;5114214;28;20194;-50
2022/08/07 07:02:12;;;;;;;0.80;0.80;;;;;17.20;96596.00;;;;5114186;28;20226;-49
2022/08/07 07:04:39;;;;;;;0.60;0.60;;;;;17.60;96586.00;;;;5096208;28;20659;-53
2022/08/07 07:07:07;;;;;;;1.13;0.83;;;;;17.90;96597.00;;;;5114201;28;20205;-55
2022/08/07 07:09:34;;;;;;;0.70;0.70;;;;;18.10;96588.00;;;;5114321;28;20210;-57
2022/08/07 07:12:16;;;;;;;3.80;1.53;;;;;18.20;96582.00;;;;5114304;28;20216;-50
2022/08/07 07:14:49;;;;;;;0.50;0.50;;;;;18.30;96591.00;;;;5113953;28;20209;-52
2022/08/07 07:17:21;;;;;;;0.50;0.50;;;;;18.60;96581.00;;;;5113902;28;20217;-49
2022/08/07 07:19:55;;;;;;;0.67;0.67;;;;;18.70;96590.00;;;;5113773;28;20257;-49
2022/08/07 07:22:22;;;;;;;0.70;0.70;;;;;18.70;96587.00;;;;5114045;28;20189;-50
2022/08/07 07:24:50;;;;;;;0.67;0.67;;;;;18.80;96587.00;;;;5113931;28;20198;-50
2022/08/07 07:27:20;;;;;;;0.70;0.70;;;;;19.10;96585.00;;;;5113916;28;20190;-49
2022/08/07 07:29:55;;;;;;;4.00;1.33;;;;;19.20;96576.00;;;;5113764;28;20698;-49
2022/08/07 07:32:24;;;;;;;0.60;0.60;;;;;19.20;96582.00;;;;5113725;28;20202;-49
2022/08/07 07:34:54;;;;;;;0.77;0.77;;;;;19.40;96578.00;;;;5113262;28;20193;-49
2022/08/07 07:37:24;;;;;;;0.50;0.50;;;;;19.40;96568.00;;;;5095584;28;20560;-49
2022/08/07 07:39:56;;;;;;;1.00;1.00;;;;;19.50;96576.00;;;;5113454;28;20296;-49
2022/08/07 07:42:26;;;;;;;0.80;0.80;;;;;19.70;96573.00;;;;5113541;28;20196;-49
2022/08/07 07:44:54;;;;;;;1.20;1.10;;;;;19.50;96574.00;;;;5113413;28;20684;-51
2022/08/07 07:47:23;;;;;;;0.60;0.60;;;;;19.60;96573.00;;;;5113625;28;20208;-48
2022/08/07 07:49:52;;;;;;;1.07;1.07;;;;;19.60;96573.00;;;;5113567;28;20232;-58
2022/08/07 07:52:20;;;;;;;0.73;0.73;;;;;19.70;96575.00;;;;5113687;28;20224;-50
2022/08/07 07:54:48;;;;;;;0.40;0.40;;;;;19.90;96568.00;;;;5095654;28;20234;-49
2022/08/07 07:57:19;;;;;;;0.93;0.93;;;;;20.00;96569.00;;;;5113474;28;20189;-49
2022/08/07 07:59:49;;;;;;;0.97;0.97;;;;;20.00;96564.00;;;;5095538;28;20226;-50
2022/08/07 08:02:17;;;;;;;0.63;0.63;;;;;19.90;96572.00;;;;5113377;28;20276;-51
2022/08/07 08:04:45;;;;;;;0.87;0.87;;;;;19.90;96569.00;;;;5113316;28;20228;-53
2022/08/07 08:07:13;;;;;;;0.90;0.90;;;;;20.30;96566.00;;;;5113517;28;20205;-50
2022/08/07 08:09:42;;;;;;;0.57;0.57;;;;;20.40;96563.00;;;;5113243;28;20316;-51
2022/08/07 08:12:09;;;;;;;0.53;0.53;;;;;20.50;96560.00;;;;5113525;28;20190;-51
2022/08/07 08:14:36;;;;;;;0.80;0.80;;;;;20.40;96559.00;;;;5113467;28;20209;-56
2022/08/07 08:17:07;;;;;;;1.23;1.23;;;;;20.50;96567.00;;;;5113368;28;20190;-50
2022/08/07 08:19:37;;;;;;;0.60;0.60;;;;;20.70;96565.00;;;;5113294;28;20637;-51
2022/08/07 08:27:40;;;;;;;0.47;0.47;;;;;20.90;96558.00;;;;5095113;28;20190;-50
2022/08/07 08:30:09;;;;;;;0.33;0.33;;;;;20.90;96553.00;;;;5113021;28;20621;-50
2022/08/07 08:32:40;;;;;;;0.70;0.70;;;;;20.80;96556.00;;;;5113026;28;20255;-49
2022/08/07 08:35:09;;;;;;;0.77;0.77;;;;;21.20;96558.00;;;;5112895;28;20214;-50
2022/08/07 08:37:37;;;;;;;0.40;0.40;;;;;21.40;96555.00;;;;5112984;28;20194;-51
2022/08/07 08:40:13;;;;;;;0.45;0.45;;;;;21.40;96554.00;;;;5112943;28;20209;-51
2022/08/07 08:42:47;;;;;;;0.50;0.50;;;;;21.40;96561.00;;;;5113067;28;20193;-50
2022/08/07 08:45:20;;;;;;;0.40;0.40;;;;;21.40;96556.00;;;;5112982;28;20642;-50
2022/08/07 08:47:59;;;;;;;0.45;0.45;;;;;21.30;96553.00;;;;5115916;28;20592;-50
2022/08/07 08:50:29;;;;;;;0.30;0.30;;;;;21.50;96551.00;;;;5098485;28;20205;-50
2022/08/07 08:53:04;;;;;;;0.57;0.57;;;;;21.50;96547.00;;;;5098352;28;20585;-50
2022/08/07 08:55:38;;;;;;;0.40;0.40;;;;;21.50;96549.00;;;;5116477;28;20202;-50
2022/08/07 08:58:10;;;;;;;0.93;0.73;;;;;21.60;96534.00;;;;5098587;28;20222;-53
2022/08/07 09:00:47;;;;;;;0.40;0.40;;;;;21.70;96538.00;;;;5116336;28;20230;-50
2022/08/07 09:03:26;;;;;;;0.63;0.63;;;;;22.10;96542.00;;;;5116258;28;20276;-51
2022/08/07 09:05:59;;;;;;;0.50;0.50;;;;;22.40;96539.00;;;;5116307;28;20294;-50
2022/08/07 09:08:41;;;;;;;0.38;0.38;;;;;22.20;96544.00;;;;5115903;28;20248;-50
2022/08/07 09:11:18;;;;;;;0.65;0.65;;;;;22.50;96545.00;;;;5115960;28;20266;-49
2022/08/07 09:13:56;;;;;;;0.70;0.70;;;;;22.60;96539.00;;;;5115977;28;20632;-49
2022/08/07 09:16:33;;;;;;;0.40;0.40;;;;;22.60;96539.00;;;;5115939;28;20213;-50
2022/08/07 09:19:16;;;;;;;0.40;0.40;;;;;22.60;96542.00;;;;5116029;28;20198;-50
2022/08/07 09:21:52;;;;;;;0.55;0.55;;;;;22.60;96542.00;;;;5115865;28;20244;-50
2022/08/07 09:24:33;;;;;;;0.88;0.88;;;;;22.60;96547.00;;;;5115770;28;20207;-50
2022/08/07 09:27:09;;;;;;;0.47;0.47;;;;;22.60;96546.00;;;;5115778;28;20209;-50
2022/08/07 09:29:45;;;;;;;0.50;0.50;;;;;22.60;96541.00;;;;5115855;28;20197;-56
2022/08/07 09:32:24;;;;;;;0.50;0.50;;;;;22.60;96543.00;;;;5115714;28;20200;-52
2022/08/07 09:35:05;;;;;;;0.88;0.88;;;;;22.70;96537.00;;;;5115582;28;20274;-49
2022/08/07 09:37:39;;;;;;;0.35;0.35;;;;;22.90;96538.00;;;;5115396;28;20190;-50
2022/08/07 09:40:19;;;;;;;0.80;0.80;;;;;22.90;96535.00;;;;5115564;28;20221;-50
2022/08/07 09:42:53;;;;;;;0.50;0.50;;;;;22.70;96530.00;;;;5115507;28;20676;-50
2022/08/07 09:45:33;;;;;;;0.95;0.95;;;;;22.60;96533.00;;;;5115484;28;20193;-50
2022/08/07 09:48:14;;;;;;;0.40;0.40;;;;;22.80;96534.00;;;;5115269;28;20239;-50
2022/08/07 09:50:55;;;;;;;0.60;0.60;;;;;23.00;96536.00;;;;5097427;28;20217;-50
2022/08/07 09:53:26;;;;;;;0.50;0.50;;;;;23.00;96535.00;;;;5097481;28;20283;-50
2022/08/07 09:56:28;;;;;;;0.50;0.50;;;;;23.40;96535.00;;;;5115300;28;20194;-49
2022/08/07 09:59:14;;;;;;;0.43;0.43;;;;;23.50;96532.00;;;;5115091;28;20217;-51
2022/08/07 10:02:00;;;;;;;0.47;0.47;;;;;23.60;96533.00;;;;5115228;28;20223;-50
2022/08/07 10:05:00;;;;;;;0.47;0.47;;;;;23.50;96516.00;;;;5096986;28;20696;-50
2022/08/07 10:07:47;;;;;;;0.70;0.70;;;;;23.60;96526.00;;;;5079267;28;20664;-50
2022/08/07 10:10:25;;;;;;;0.65;0.60;;;;;23.60;96525.00;;;;5115092;28;20530;-54
2022/08/07 10:13:39;;;;;;;0.30;0.30;;;;;23.80;96516.00;;;;5115087;28;20254;-50
2022/08/07 10:16:28;;;;;;;0.60;0.60;;;;;23.80;96518.00;;;;5012795;28;20683;-50
2022/08/07 10:19:18;;;;;;;0.60;0.60;;;;;23.60;96515.00;;;;5106070;28;20586;-51
2022/08/07 10:21:57;;;;;;;0.40;0.40;;;;;23.80;96514.00;;;;5115065;28;20217;-49
2022/08/07 10:24:48;;;;;;;0.50;0.50;;;;;24.00;96506.00;;;;5114696;28;20213;-49
2022/08/07 10:27:29;;;;;;;0.43;0.43;;;;;23.70;96504.00;;;;5096853;28;20266;-50
2022/08/07 10:30:05;;;;;;;0.40;0.40;;;;;24.00;96501.00;;;;5114944;28;20221;-50
2022/08/07 10:33:09;;;;;;;0.40;0.40;;;;;23.70;96493.00;;;;5114822;28;20193;-50
2022/08/07 10:35:52;;;;;;;0.52;0.52;;;;;23.60;96496.00;;;;5065015;28;20342;-48
2022/08/07 10:38:36;;;;;;;0.40;0.40;;;;;23.80;96491.00;;;;5096615;28;20556;-49
2022/08/07 10:41:14;;;;;;;0.50;0.50;;;;;23.90;96484.00;;;;5114486;28;20221;-49
2022/08/07 10:43:53;;;;;;;0.30;0.30;;;;;24.20;96479.00;;;;5114623;28;20309;-49
2022/08/07 10:46:25;;;;;;;0.40;0.40;;;;;24.40;96475.00;;;;5114521;28;20278;-49
2022/08/07 10:49:08;;;;;;;0.60;0.60;;;;;24.30;96473.00;;;;5114807;28;20644;-50
2022/08/07 10:51:46;;;;;;;0.50;0.50;;;;;24.70;96471.00;;;;5114552;28;20217;-49
2022/08/07 10:54:26;;;;;;;0.50;0.50;;;;;24.90;96480.00;;;;5114551;28;20538;-51
2022/08/07 10:57:12;;;;;;;0.40;0.40;;;;;25.00;96457.00;;;;5114605;28;20268;-49
2022/08/07 11:00:00;;;;;;;0.50;0.50;;;;;24.70;96455.00;;;;5114340;28;20371;-48
2022/08/07 11:02:31;;;;;;;0.50;0.50;;;;;25.10;96454.00;;;;5110252;28;20317;-48
2022/08/07 11:05:08;;;;;;;0.40;0.40;;;;;25.20;96450.00;;;;5114332;28;20586;-53
2022/08/07 11:07:43;;;;;;;0.43;0.43;;;;;25.60;96452.00;;;;5114211;28;20201;-48
2022/08/07 11:10:23;;;;;;;0.40;0.40;;;;;25.60;96443.00;;;;5113547;28;20701;-50
2022/08/07 11:13:01;;;;;;;0.50;0.50;;;25.80;50.60;25.90;96445.00;;;;5114237;28;20682;-51
2022/08/07 11:15:37;;;;;;;0.50;0.50;;;26.20;19.70;25.90;96455.00;;;;5114174;28;20194;-48
2022/08/07 11:18:15;;;;;;;0.40;0.40;;;26.20;19.40;26.00;96448.00;;;;5114133;28;20521;-49
2022/08/07 11:20:52;;;;;;;0.50;0.50;;;26.30;19.10;25.90;96437.00;;;;5113880;28;20310;-49
2022/08/07 11:23:33;;;;;;;0.82;0.82;;;26.20;19.00;25.90;96447.00;;;;5113909;28;20208;-48
2022/08/07 11:26:12;;;;;;;1.25;1.08;;;26.20;18.80;25.90;96444.00;;;;5113923;28;20274;-49
2022/08/07 11:28:49;;;;;;;0.40;0.40;;;26.30;18.60;25.80;96443.00;;;;5114012;28;20266;-53
2022/08/07 11:31:29;;;;;;;0.47;0.47;;;26.10;18.50;26.10;96431.00;;;;5114124;28;20533;-49
2022/08/07 11:34:07;;;;;;;0.80;0.80;;;26.30;18.70;26.30;96440.00;;;;5113847;28;20209;-48
2022/08/07 11:36:48;;;;;;;0.52;0.52;;;26.40;18.50;26.40;96431.00;;;;5113762;28;20217;-49
2022/08/07 11:39:31;;;;;;;0.45;0.45;;;26.60;18.50;26.70;96427.00;;;;5113727;28;20652;-48
2022/08/07 11:42:14;;;;;;;0.50;0.50;;;26.80;18.30;26.50;96428.00;;;;5113583;28;20217;-48
2022/08/07 11:44:54;;;;;;;0.75;0.73;;;26.80;17.40;26.60;96429.00;;;;5113807;28;20190;-49
2022/08/07 11:47:56;;;;;;;0.60;0.60;;;26.80;17.80;27.00;96426.00;;;;5095639;28;20225;-49
2022/08/07 11:50:43;;;;;;;0.50;0.50;;;27.10;18.00;27.00;96409.00;;;;5109752;28;20228;-51
2022/08/07 11:53:26;;;;;;;0.40;0.40;;;27.20;17.80;27.00;96415.00;;;;5113537;28;20253;-49
2022/08/07 11:56:23;;;;;;;0.40;0.40;;;27.10;17.90;27.20;96425.00;;;;5113584;28;20217;-49
2022/08/07 11:59:09;;;;;;;0.50;0.50;;;27.20;17.30;27.30;96423.00;;;;5113476;28;20671;-48
2022/08/07 12:01:49;;;;;;;0.50;0.50;;;;;27.30;96417.00;;;;5113473;28;20297;-48
2022/08/07 12:04:54;;;;;;;0.30;0.30;;;27.40;17.20;27.50;96417.00;;;;5113338;28;20768;-48
2022/08/07 12:07:33;;;;;;;0.60;0.60;;;27.60;16.80;27.50;96412.00;;;;5113485;28;20200;-48
2022/08/07 12:10:11;;;;;;;0.50;0.50;;;27.80;16.10;27.80;96409.00;;;;5095374;28;20234;-49
2022/08/07 12:12:47;;;;;;;0.80;0.80;;;28.00;17.00;27.70;96413.00;;;;5095559;28;20201;-48
2022/08/07 12:15:20;;;;;;;0.60;0.60;;;27.90;16.00;27.90;96405.00;;;;5113387;28;20304;-49
2022/08/07 12:17:55;;;;;;;0.93;0.93;;;28.10;16.40;28.00;96412.00;;;;5113372;28;20193;-48
2022/08/07 12:20:28;;;;;;;0.32;0.32;;;28.20;16.00;27.90;96402.00;;;;5113382;28;20386;-49
2022/08/07 12:23:15;;;;;;;0.65;0.65;;;28.10;15.90;28.20;96404.00;;;;5116465;28;20186;-49
2022/08/07 12:25:55;;;;;;;0.45;0.45;;;28.40;15.80;28.20;96405.00;;;;5116717;28;20224;-49
2022/08/07 12:28:33;;;;;;;0.55;0.55;;;28.40;15.60;28.20;96405.00;;;;5116814;28;20284;-49
2022/08/07 12:31:10;;;;;;;0.60;0.60;;;28.40;15.60;28.40;96399.00;;;;5098656;28;20247;-48
2022/08/07 12:33:41;;;;;;;0.60;0.60;;;28.50;16.20;28.40;96396.00;;;;5116618;28;20238;-49
2022/08/07 12:36:10;;;;;;;0.50;0.50;;;28.60;15.90;28.40;96404.00;;;;5116592;28;20190;-49
2022/08/07 12:38:39;;;;;;;0.50;0.50;;;28.60;15.40;28.40;96391.00;;;;5116608;28;20641;-49
2022/08/07 12:41:09;;;;;;;0.50;0.50;;;28.60;15.90;28.50;96400.00;;;;5116542;28;20288;-49